Terminal Aerodrome Forecast
Issued by NWS Springfield, MO

Home | Current Version | Previous Version | Text Only | Print | Product List | Glossary On
Versions: 1 2 3 4 5 6 7 8 9 10 11 12 13 14 15 16 17 18 19 20 21 22 23 24 25 26 27 28 29 30 31 32 33 34
882
FTUS43 KSGF 250239 AAC
TAFSGF
TAF AMD
KSGF 250239Z 2503/2524 VRB04KT 6SM -RA BR OVC050
      TEMPO 2503/2506 3SM RA BR BKN025
     FM250600 16008KT P6SM -SHRA BKN090
     FM251400 23006KT 4SM -SHRA OVC045
     FM252200 27010KT P6SM -SHRA OVC015=

USA.gov is the U.S. government's official web portal to all federal, state and local government web resources and services.